TAF TJBQ
AMD TJBQ 081921Z 0819/0918 09012KT P6SM FEW030 SCT070 SCT080 FM090300 12005KT P6SM FEW025 FM091400 08016G22KT P6SM SCT025 AMD NOT SKED 0902/0911=
METAR TJBQ
WC TJBQ
WS TJBQ
WV TJBQ